createdAt,value
2022-09-23T00:01:01.573Z,68.09
2022-09-23T00:03:30.737Z,68.20
2022-09-23T00:06:01.869Z,67.29
2022-09-23T00:08:29.177Z,67.50
2022-09-23T00:10:56.457Z,68.12
2022-09-23T00:13:24.876Z,68.16
2022-09-23T00:15:51.688Z,67.63
2022-09-23T00:18:18.360Z,67.84
2022-09-23T00:20:45.058Z,68.33
2022-09-23T00:23:11.520Z,68.36
2022-09-23T00:25:37.940Z,69.17
2022-09-23T00:28:04.434Z,68.17
2022-09-23T00:30:32.404Z,67.77
2022-09-23T00:32:58.887Z,68.18
2022-09-23T00:35:25.491Z,68.93
2022-09-23T00:37:52.015Z,67.90
2022-09-23T00:40:18.689Z,68.28
2022-09-23T00:42:47.787Z,68.29
2022-09-23T00:45:14.859Z,68.61
2022-09-23T00:47:56.481Z,69.42
2022-09-23T00:50:26.567Z,69.59
2022-09-23T00:52:56.722Z,69.36
2022-09-23T00:55:28.575Z,69.21
2022-09-23T00:57:58.302Z,68.52
2022-09-23T01:00:25.035Z,68.39
2022-09-23T01:02:51.764Z,68.74
2022-09-23T01:05:19.263Z,68.89
2022-09-23T01:07:46.438Z,69.05
2022-09-23T01:10:16.753Z,68.52
2022-09-23T01:12:59.643Z,68.61
2022-09-23T01:15:39.739Z,68.89
2022-09-23T01:18:31.178Z,69.34
2022-09-23T01:21:14.432Z,69.96
2022-09-23T01:24:02.729Z,69.59
2022-09-23T01:26:50.178Z,69.41
2022-09-23T01:29:41.350Z,69.26
2022-09-23T01:32:17.095Z,69.53
2022-09-23T01:35:00.114Z,70.15
2022-09-23T01:38:11.921Z,69.69
2022-09-23T01:40:59.490Z,69.89
2022-09-23T01:43:33.999Z,70.18
2022-09-23T01:46:05.862Z,71.04
2022-09-23T01:48:39.132Z,71.18
2022-09-23T01:51:15.361Z,71.09
2022-09-23T01:53:49.657Z,70.56
2022-09-23T01:56:25.841Z,70.03
2022-09-23T01:59:30.623Z,69.62
2022-09-23T02:02:06.167Z,69.63
2022-09-23T02:04:48.002Z,70.15
2022-09-23T02:07:22.223Z,70.00
2022-09-23T02:09:57.786Z,70.51
2022-09-23T02:12:28.532Z,70.37
2022-09-23T02:15:04.124Z,70.01
2022-09-23T02:17:39.631Z,69.77
2022-09-23T02:20:07.302Z,70.60
2022-09-23T02:22:45.979Z,70.02
2022-09-23T02:25:12.553Z,69.64
2022-09-23T02:27:54.489Z,70.07
2022-09-23T02:30:27.094Z,71.08
2022-09-23T02:33:04.503Z,71.70
2022-09-23T02:35:37.109Z,70.19
2022-09-23T02:38:31.497Z,70.46
2022-09-23T02:41:09.807Z,71.02
2022-09-23T02:43:46.131Z,71.69
2022-09-23T02:46:13.072Z,70.67
2022-09-23T02:48:45.297Z,70.66
2022-09-23T02:51:13.047Z,70.44
2022-09-23T02:53:40.038Z,70.89
2022-09-23T02:56:19.553Z,69.92
2022-09-23T02:58:51.809Z,69.61
2022-09-23T03:01:38.423Z,69.55
2022-09-23T03:04:18.052Z,70.16
2022-09-23T03:06:49.638Z,70.41
2022-09-23T03:09:43.713Z,70.03
2022-09-23T03:12:22.240Z,69.92
2022-09-23T03:15:12.285Z,70.25
2022-09-23T03:17:50.160Z,71.01
2022-09-23T03:20:26.048Z,70.97
2022-09-23T03:23:00.854Z,70.58
2022-09-23T03:25:31.767Z,70.50
2022-09-23T03:28:00.869Z,70.42
2022-09-23T03:30:28.554Z,69.71
2022-09-23T03:32:55.931Z,69.84
2022-09-23T03:35:27.848Z,70.15
2022-09-23T03:38:03.434Z,70.16
2022-09-23T03:40:42.011Z,70.46
2022-09-23T03:43:09.816Z,70.40
2022-09-23T03:45:36.482Z,70.53
2022-09-23T03:48:03.150Z,70.00
2022-09-23T03:50:29.685Z,70.41
2022-09-23T03:52:56.199Z,70.17
2022-09-23T03:55:22.655Z,70.29
2022-09-23T03:57:49.243Z,70.88
2022-09-23T04:00:16.007Z,70.97
2022-09-23T04:02:43.272Z,71.88
2022-09-23T04:05:11.509Z,71.13
2022-09-23T04:07:38.361Z,70.92
2022-09-23T04:10:06.128Z,70.69
2022-09-23T04:12:32.806Z,71.10
2022-09-23T04:14:59.278Z,71.10
2022-09-23T04:17:25.721Z,70.88
2022-09-23T04:19:52.240Z,70.85
2022-09-23T04:22:18.687Z,70.96
2022-09-23T04:24:45.125Z,71.60
2022-09-23T04:27:11.607Z,72.25
2022-09-23T04:29:38.097Z,72.21
2022-09-23T04:32:04.699Z,72.30
2022-09-23T04:34:31.189Z,71.96
2022-09-23T04:36:57.637Z,72.05
2022-09-23T04:39:24.063Z,72.13
2022-09-23T04:41:50.497Z,72.40
2022-09-23T04:44:17.108Z,72.52
2022-09-23T04:46:47.273Z,72.98
2022-09-23T04:49:14.669Z,73.60
2022-09-23T04:51:43.388Z,73.43
2022-09-23T04:54:12.087Z,72.84
2022-09-23T04:56:39.705Z,73.12
2022-09-23T04:59:07.061Z,73.47
2022-09-23T05:01:35.055Z,73.06
2022-09-23T05:04:05.282Z,73.65
2022-09-23T05:06:34.471Z,73.71
2022-09-23T05:09:02.724Z,74.15
2022-09-23T05:11:31.373Z,73.77
2022-09-23T05:13:58.614Z,73.62
2022-09-23T05:16:26.141Z,73.65
2022-09-23T05:18:53.113Z,74.19
2022-09-23T05:21:22.759Z,74.04
2022-09-23T05:23:55.254Z,73.95
2022-09-23T05:26:27.175Z,74.40
2022-09-23T05:28:54.399Z,74.76
2022-09-23T05:31:23.334Z,74.16
2022-09-23T05:33:58.691Z,74.16
2022-09-23T05:36:27.462Z,73.83
2022-09-23T05:38:54.635Z,74.21
2022-09-23T05:41:25.215Z,74.57
2022-09-23T05:43:53.186Z,74.17
2022-09-23T05:46:22.404Z,74.89
2022-09-23T05:48:49.184Z,74.79
2022-09-23T05:51:30.104Z,75.07
2022-09-23T05:53:58.262Z,74.75
2022-09-23T05:56:27.382Z,74.72
2022-09-23T05:58:55.659Z,74.85
2022-09-23T06:01:27.885Z,75.10
2022-09-23T06:03:56.049Z,75.34
2022-09-23T06:06:27.801Z,75.29
2022-09-23T06:08:54.315Z,75.63
2022-09-23T06:11:21.470Z,75.60
2022-09-23T06:13:48.540Z,75.40
2022-09-23T06:16:15.969Z,74.97
2022-09-23T06:18:45.121Z,74.12
2022-09-23T06:21:16.734Z,73.10
2022-09-23T06:23:44.730Z,73.00
2022-09-23T06:26:13.525Z,72.83
2022-09-23T06:28:41.611Z,73.12
2022-09-23T06:31:13.489Z,73.13
2022-09-23T06:33:40.535Z,73.08
2022-09-23T06:36:08.064Z,73.41
2022-09-23T06:38:35.577Z,73.10
2022-09-23T06:41:03.424Z,73.86
2022-09-23T06:43:30.511Z,73.84
2022-09-23T06:46:01.543Z,74.21
2022-09-23T06:48:28.777Z,74.34
2022-09-23T06:50:59.439Z,74.04
2022-09-23T06:53:25.899Z,74.10
2022-09-23T06:56:04.066Z,73.77
2022-09-23T06:58:31.937Z,73.83
2022-09-23T07:01:09.879Z,74.10
2022-09-23T07:03:37.045Z,74.50
2022-09-23T07:06:04.950Z,74.79
2022-09-23T07:08:33.653Z,74.74
2022-09-23T07:11:02.374Z,75.01
2022-09-23T07:13:30.028Z,75.17
2022-09-23T07:16:02.098Z,74.86
2022-09-23T07:18:36.970Z,74.50
2022-09-23T07:21:08.864Z,74.41
2022-09-23T07:23:35.507Z,74.33
2022-09-23T07:26:02.071Z,73.59
2022-09-23T07:28:29.132Z,74.06
2022-09-23T07:31:00.310Z,74.21
2022-09-23T07:33:33.135Z,74.96
2022-09-23T07:36:04.950Z,74.75
2022-09-23T07:38:31.455Z,74.60
2022-09-23T07:41:18.179Z,74.19
2022-09-23T07:43:45.583Z,74.52
2022-09-23T07:46:15.086Z,74.96
2022-09-23T07:48:42.824Z,75.28
2022-09-23T07:51:13.781Z,75.37
2022-09-23T07:53:40.343Z,75.23
2022-09-23T07:56:06.875Z,75.52
2022-09-23T07:58:34.618Z,75.15
2022-09-23T08:01:03.795Z,75.10
2022-09-23T08:03:30.267Z,75.23
2022-09-23T08:06:04.470Z,74.75
2022-09-23T08:08:31.082Z,75.03
2022-09-23T08:11:02.604Z,75.10
2022-09-23T08:13:29.093Z,75.06
2022-09-23T08:15:55.783Z,74.57
2022-09-23T08:18:22.341Z,74.60
2022-09-23T08:20:48.793Z,74.76
2022-09-23T08:23:16.713Z,75.05
2022-09-23T08:25:47.386Z,74.38
2022-09-23T08:28:16.745Z,74.29
2022-09-23T08:30:44.305Z,74.09
2022-09-23T08:33:12.253Z,73.53
2022-09-23T08:35:38.814Z,72.91
2022-09-23T08:38:06.523Z,72.34
2022-09-23T08:40:37.153Z,71.29
2022-09-23T08:43:07.138Z,68.86
2022-09-23T08:45:36.601Z,63.97
2022-09-23T08:48:13.199Z,63.91
2022-09-23T08:50:47.004Z,63.46
2022-09-23T08:53:26.733Z,62.24
2022-09-23T08:55:55.685Z,62.23
2022-09-23T08:58:40.916Z,63.28
2022-09-23T09:01:23.284Z,63.02
2022-09-23T09:03:58.817Z,63.51
2022-09-23T09:06:52.450Z,62.87
2022-09-23T09:09:24.590Z,62.72
2022-09-23T09:11:55.401Z,62.31
2022-09-23T09:14:34.330Z,61.94
2022-09-23T09:17:05.195Z,61.83
2022-09-23T09:19:57.578Z,61.67
2022-09-23T09:22:42.048Z,60.93
2022-09-23T09:25:24.166Z,60.86
2022-09-23T09:27:52.072Z,58.18
2022-09-23T09:30:19.518Z,58.67
2022-09-23T09:32:59.149Z,57.69
2022-09-23T09:35:37.687Z,55.44
2022-09-23T09:38:05.784Z,54.20
2022-09-23T09:40:35.122Z,52.98
2022-09-23T09:43:05.170Z,54.33
2022-09-23T09:45:59.715Z,53.00
2022-09-23T09:48:53.728Z,52.19
2022-09-23T09:51:22.415Z,52.79
2022-09-23T09:53:52.565Z,49.63
2022-09-23T09:56:34.517Z,49.84
2022-09-23T09:59:08.281Z,49.65
2022-09-23T10:01:35.551Z,50.04
2022-09-23T10:04:05.788Z,51.16
2022-09-23T10:06:36.107Z,51.11
2022-09-23T10:09:08.476Z,51.15
2022-09-23T10:11:35.122Z,51.51
2022-09-23T10:14:12.517Z,50.47
2022-09-23T10:16:42.837Z,51.47
2022-09-23T10:19:29.229Z,51.54
2022-09-23T10:22:00.136Z,49.62
2022-09-23T10:24:30.505Z,49.97
2022-09-23T10:27:01.830Z,50.34
2022-09-23T10:29:40.131Z,49.10
2022-09-23T10:32:28.125Z,48.97
2022-09-23T10:35:14.836Z,47.97
2022-09-23T10:37:48.307Z,48.34
2022-09-23T10:40:44.031Z,47.14
2022-09-23T10:44:05.190Z,46.22
2022-09-23T10:46:54.472Z,46.14
2022-09-23T10:49:28.583Z,45.67
2022-09-23T10:52:14.966Z,45.84
2022-09-23T10:54:56.500Z,46.72
2022-09-23T10:57:49.629Z,45.92
2022-09-23T11:00:22.241Z,45.79
2022-09-23T11:03:23.730Z,45.32
2022-09-23T11:06:25.035Z,44.61
2022-09-23T11:09:11.772Z,45.34
2022-09-23T11:12:14.208Z,44.58
2022-09-23T11:15:09.361Z,43.44
2022-09-23T11:17:45.428Z,42.53
2022-09-23T11:20:32.055Z,41.70
2022-09-23T11:23:13.666Z,41.39
2022-09-23T11:26:14.144Z,42.42
2022-09-23T11:28:49.541Z,39.89
2022-09-23T11:31:36.338Z,40.23
2022-09-23T11:34:22.247Z,40.49
2022-09-23T11:37:05.191Z,38.74
2022-09-23T11:39:37.932Z,39.78
2022-09-23T11:42:12.340Z,38.05
2022-09-23T11:44:44.520Z,37.77
2022-09-23T11:47:19.615Z,39.59
2022-09-23T11:49:51.883Z,39.37
2022-09-23T11:52:30.634Z,39.44
2022-09-23T11:55:22.669Z,37.61
2022-09-23T11:58:23.121Z,41.14
2022-09-23T12:01:15.133Z,39.14
2022-09-23T12:04:15.540Z,38.47
2022-09-23T12:06:59.627Z,37.31
2022-09-23T12:09:57.204Z,38.01
2022-09-23T12:12:48.834Z,36.87
2022-09-23T12:15:45.951Z,37.33
2022-09-23T12:18:35.788Z,37.87
2022-09-23T12:21:48.674Z,35.47
2022-09-23T12:24:27.363Z,36.61
2022-09-23T12:26:58.327Z,36.91
2022-09-23T12:31:59.921Z,36.95
2022-09-23T12:34:32.462Z,35.09
2022-09-23T12:37:05.682Z,36.66
2022-09-23T12:39:37.336Z,34.99
2022-09-23T12:42:11.298Z,35.63
2022-09-23T12:44:43.347Z,36.82
2022-09-23T12:47:25.014Z,37.48
2022-09-23T12:49:58.162Z,36.39
2022-09-23T12:52:31.434Z,35.12
2022-09-23T12:55:33.173Z,35.33
2022-09-23T12:57:59.621Z,36.35
2022-09-23T13:00:29.852Z,34.99
2022-09-23T13:03:19.589Z,34.86
2022-09-23T13:06:12.204Z,35.44
2022-09-23T13:08:41.639Z,36.06
2022-09-23T13:11:21.054Z,34.94
2022-09-23T13:13:49.798Z,35.72
2022-09-23T13:16:40.664Z,34.87
2022-09-23T13:19:12.903Z,34.11
2022-09-23T13:21:42.383Z,33.18
2022-09-23T13:24:33.069Z,33.88
2022-09-23T13:27:00.183Z,34.34
2022-09-23T13:29:33.104Z,33.81
2022-09-23T13:32:02.036Z,34.36
2022-09-23T13:34:34.612Z,33.14
2022-09-23T13:37:49.674Z,33.74
2022-09-23T13:40:25.799Z,33.41
2022-09-23T13:43:04.554Z,32.66
2022-09-23T13:45:32.065Z,31.71
2022-09-23T13:48:03.207Z,33.49
2022-09-23T13:50:34.734Z,33.90
2022-09-23T13:53:06.404Z,33.01
2022-09-23T13:55:38.716Z,33.71
2022-09-23T13:58:13.555Z,34.93
2022-09-23T14:00:40.367Z,35.91
2022-09-23T14:03:36.506Z,35.27
2022-09-23T14:06:10.832Z,35.99
2022-09-23T14:08:39.455Z,36.41
2022-09-23T14:11:06.250Z,36.38
2022-09-23T14:13:40.315Z,35.79
2022-09-23T14:16:11.459Z,35.36
2022-09-23T14:18:45.184Z,35.36
2022-09-23T14:21:37.562Z,35.84
2022-09-23T14:24:33.066Z,35.85
2022-09-23T14:27:06.761Z,36.02
2022-09-23T14:29:39.586Z,37.69
2022-09-23T14:32:13.385Z,37.68
2022-09-23T14:34:40.465Z,37.89
2022-09-23T14:37:42.759Z,37.44
2022-09-23T14:40:21.338Z,38.62
2022-09-23T14:43:00.158Z,39.61
2022-09-23T14:45:30.248Z,39.77
2022-09-23T14:47:59.913Z,40.55
2022-09-23T14:50:47.038Z,41.56
2022-09-23T14:53:22.763Z,39.51
2022-09-23T14:55:53.327Z,40.25
2022-09-23T14:58:25.577Z,40.35
2022-09-23T15:00:54.458Z,41.60
2022-09-23T15:03:21.533Z,40.83
2022-09-23T15:05:50.865Z,41.71
2022-09-23T15:08:22.956Z,41.99
2022-09-23T15:10:50.311Z,41.19
2022-09-23T15:13:21.252Z,42.55
2022-09-23T15:15:48.004Z,42.80
2022-09-23T15:18:19.003Z,42.31
2022-09-23T15:20:54.322Z,42.07
2022-09-23T15:23:48.916Z,43.29
2022-09-23T15:26:18.602Z,43.03
2022-09-23T15:28:45.902Z,43.15
2022-09-23T15:31:17.055Z,43.52
2022-09-23T15:33:44.813Z,44.44
2022-09-23T15:36:19.595Z,43.51
2022-09-23T15:38:47.031Z,43.55
2022-09-23T15:41:14.441Z,44.45
2022-09-23T15:43:41.846Z,44.27
2022-09-23T15:46:18.106Z,44.59
2022-09-23T15:48:58.466Z,45.57
2022-09-23T15:51:26.655Z,46.15
2022-09-23T15:53:54.843Z,46.08
2022-09-23T15:56:21.982Z,45.99
2022-09-23T15:58:48.597Z,47.09
2022-09-23T16:01:23.812Z,47.51
2022-09-23T16:03:50.369Z,47.63
2022-09-23T16:06:16.787Z,47.50
2022-09-23T16:08:43.256Z,46.97
2022-09-23T16:11:21.787Z,48.91
2022-09-23T16:13:48.242Z,49.43
2022-09-23T16:16:14.711Z,49.89
2022-09-23T16:18:43.712Z,51.11
2022-09-23T16:21:13.545Z,50.62
2022-09-23T16:23:43.661Z,51.73
2022-09-23T16:26:17.621Z,51.03
2022-09-23T16:28:45.824Z,52.03
2022-09-23T16:31:16.185Z,51.32
2022-09-23T16:33:43.576Z,51.83
2022-09-23T16:36:27.782Z,52.06
2022-09-23T16:39:04.161Z,52.78
2022-09-23T16:41:34.055Z,52.54
2022-09-23T16:44:04.360Z,53.53
2022-09-23T16:46:32.242Z,54.27
2022-09-23T16:49:00.329Z,54.76
2022-09-23T16:51:37.898Z,53.92
2022-09-23T16:54:12.607Z,53.56
2022-09-23T16:56:44.121Z,53.93
2022-09-23T16:59:12.371Z,54.27
2022-09-23T17:01:57.316Z,55.15
2022-09-23T17:04:23.843Z,55.29
2022-09-23T17:06:52.487Z,55.11
2022-09-23T17:09:26.220Z,55.51
2022-09-23T17:12:12.138Z,56.18
2022-09-23T17:14:42.111Z,56.58
2022-09-23T17:17:08.891Z,56.49
2022-09-23T17:19:37.381Z,56.99
2022-09-23T17:22:03.846Z,57.33
2022-09-23T17:24:30.281Z,56.91
2022-09-23T17:26:56.713Z,57.22
2022-09-23T17:29:23.210Z,57.43
2022-09-23T17:31:49.881Z,57.46
2022-09-23T17:34:18.688Z,57.48
2022-09-23T17:36:45.441Z,57.89
2022-09-23T17:39:12.719Z,58.16
2022-09-23T17:41:39.266Z,58.60
2022-09-23T17:44:05.711Z,58.72
2022-09-23T17:46:32.430Z,58.78
2022-09-23T17:48:58.871Z,59.30
2022-09-23T17:51:25.508Z,59.59
2022-09-23T17:53:52.270Z,59.76
2022-09-23T17:56:26.541Z,59.80
2022-09-23T17:58:54.075Z,59.67
2022-09-23T18:01:25.222Z,59.52
2022-09-23T18:04:02.019Z,59.68
2022-09-23T18:06:35.509Z,60.18
2022-09-23T18:09:04.797Z,60.38
2022-09-23T18:11:35.115Z,60.90
2022-09-23T18:14:05.322Z,60.64
2022-09-23T18:16:36.269Z,60.83
2022-09-23T18:19:04.212Z,61.34
2022-09-23T18:21:33.618Z,61.54
2022-09-23T18:24:28.226Z,61.42
2022-09-23T18:26:49.720Z,61.63
2022-09-23T18:29:16.537Z,62.17
2022-09-23T18:31:44.141Z,62.12
2022-09-23T18:34:12.940Z,62.24
2022-09-23T18:36:39.796Z,62.75
2022-09-23T18:39:06.856Z,62.64
2022-09-23T18:41:34.106Z,62.73
2022-09-23T18:44:00.963Z,62.97
2022-09-23T18:46:29.756Z,62.98
2022-09-23T18:49:15.667Z,62.80
2022-09-23T18:51:56.185Z,62.72
2022-09-23T18:54:23.800Z,63.23
2022-09-23T18:56:52.585Z,62.59
2022-09-23T18:59:21.240Z,62.69
2022-09-23T19:01:50.066Z,62.86
2022-09-23T19:04:19.842Z,62.95
2022-09-23T19:06:47.268Z,63.21
2022-09-23T19:09:15.050Z,63.62
2022-09-23T19:11:41.551Z,63.39
2022-09-23T19:14:11.445Z,63.53
2022-09-23T19:16:39.943Z,64.05
2022-09-23T19:19:06.645Z,64.12
2022-09-23T19:21:33.880Z,64.37
2022-09-23T19:24:03.704Z,64.36
2022-09-23T19:26:39.229Z,64.60
2022-09-23T19:29:08.388Z,64.27
2022-09-23T19:31:40.604Z,64.41
2022-09-23T19:34:19.084Z,64.49
2022-09-23T19:36:47.362Z,64.49
2022-09-23T19:39:22.208Z,64.47
2022-09-23T19:41:51.232Z,64.54
2022-09-23T19:44:19.823Z,64.61
2022-09-23T19:46:51.688Z,64.68
2022-09-23T19:49:21.403Z,65.03
2022-09-23T19:51:47.855Z,65.09
2022-09-23T19:54:21.139Z,65.07
2022-09-23T19:56:50.772Z,65.22
2022-09-23T19:59:19.083Z,65.28
2022-09-23T20:01:47.697Z,65.61
2022-09-23T20:04:15.648Z,65.53
2022-09-23T20:06:42.144Z,65.72
2022-09-23T20:09:08.693Z,65.68
2022-09-23T20:11:35.711Z,65.50
2022-09-23T20:14:03.811Z,65.78
2022-09-23T20:16:32.989Z,66.10
2022-09-23T20:19:00.669Z,66.09
2022-09-23T20:21:29.046Z,65.91
2022-09-23T20:23:56.057Z,66.37
2022-09-23T20:26:41.227Z,66.00
2022-09-23T20:29:08.861Z,66.28
2022-09-23T20:31:35.488Z,66.58
2022-09-23T20:34:05.465Z,66.50
2022-09-23T20:36:33.141Z,66.59
2022-09-23T20:39:01.337Z,67.13
2022-09-23T20:41:30.051Z,66.82
2022-09-23T20:43:59.430Z,67.06
2022-09-23T20:46:29.360Z,67.11
2022-09-23T20:48:56.819Z,67.27
2022-09-23T20:51:24.840Z,67.49
2022-09-23T20:53:52.824Z,67.58
2022-09-23T20:56:23.133Z,67.45
2022-09-23T20:58:50.791Z,67.67
2022-09-23T21:01:18.008Z,68.00
2022-09-23T21:03:47.387Z,67.96
2022-09-23T21:06:15.735Z,68.02
2022-09-23T21:08:43.493Z,68.53
2022-09-23T21:11:15.965Z,68.19
2022-09-23T21:13:47.684Z,68.35
2022-09-23T21:16:16.181Z,68.28
2022-09-23T21:18:43.277Z,67.93
2022-09-23T21:21:12.120Z,68.10
2022-09-23T21:23:39.296Z,68.40
2022-09-23T21:26:14.866Z,67.79
2022-09-23T21:28:43.345Z,67.88
2022-09-23T21:31:13.156Z,67.80
2022-09-23T21:33:39.778Z,68.23
2022-09-23T21:36:07.116Z,68.53
2022-09-23T21:38:37.553Z,68.30
2022-09-23T21:41:10.389Z,68.24
2022-09-23T21:43:40.031Z,68.81
2022-09-23T21:46:09.819Z,68.93
2022-09-23T21:48:42.405Z,69.01
2022-09-23T21:51:15.123Z,68.69
2022-09-23T21:53:43.064Z,68.37
2022-09-23T21:56:11.218Z,68.33
2022-09-23T21:58:39.539Z,68.56
2022-09-23T22:01:15.214Z,68.14
2022-09-23T22:03:43.358Z,68.34
2022-09-23T22:06:21.492Z,68.05
2022-09-23T22:08:59.806Z,68.55
2022-09-23T22:11:49.170Z,68.82
2022-09-23T22:14:17.847Z,68.98
2022-09-23T22:16:44.531Z,69.27
2022-09-23T22:19:13.515Z,69.08
2022-09-23T22:21:41.663Z,68.63
2022-09-23T22:24:09.453Z,68.58
2022-09-23T22:26:38.812Z,68.74
2022-09-23T22:29:25.605Z,68.77
2022-09-23T22:32:11.225Z,68.83
2022-09-23T22:34:49.408Z,68.83
2022-09-23T22:37:25.590Z,69.00
2022-09-23T22:39:52.428Z,69.27
2022-09-23T22:42:21.225Z,69.07
2022-09-23T22:44:48.459Z,69.04
2022-09-23T22:47:15.558Z,69.21
2022-09-23T22:49:42.861Z,69.17
2022-09-23T22:52:11.173Z,69.22
2022-09-23T22:54:37.907Z,69.03
2022-09-23T22:57:06.035Z,69.38
2022-09-23T22:59:33.139Z,69.51
2022-09-23T23:02:02.305Z,69.26
2022-09-23T23:04:30.225Z,69.88
2022-09-23T23:06:58.592Z,70.06
2022-09-23T23:09:25.117Z,70.18
2022-09-23T23:11:51.545Z,70.09
2022-09-23T23:14:18.600Z,70.31
2022-09-23T23:16:46.272Z,70.21
2022-09-23T23:19:17.005Z,70.32
2022-09-23T23:21:45.341Z,70.48
2022-09-23T23:24:24.605Z,70.68
2022-09-23T23:26:51.921Z,70.75
2022-09-23T23:29:20.131Z,70.88
2022-09-23T23:31:47.107Z,70.77
2022-09-23T23:34:16.239Z,70.87
2022-09-23T23:36:44.010Z,70.88
2022-09-23T23:39:11.027Z,71.15
2022-09-23T23:41:39.421Z,71.28
2022-09-23T23:44:06.425Z,71.42
2022-09-23T23:46:33.134Z,72.19
2022-09-23T23:49:00.222Z,72.54
2022-09-23T23:51:27.503Z,72.07
2022-09-23T23:53:55.183Z,72.17
2022-09-23T23:56:23.773Z,71.59
2022-09-23T23:58:55.481Z,71.42
